createdAt,value
2019-01-30T00:00:24.466Z,17.85
2019-01-30T00:03:13.034Z,17.32
2019-01-30T00:06:02.076Z,18.82
2019-01-30T00:08:51.373Z,17.67
2019-01-30T00:11:40.612Z,16.82
2019-01-30T00:14:29.853Z,18.57
2019-01-30T00:17:18.642Z,18.85
2019-01-30T00:20:11.666Z,17.80
2019-01-30T00:23:00.717Z,17.00
2019-01-30T00:25:49.491Z,19.00
2019-01-30T00:28:38.585Z,18.67
2019-01-30T00:31:28.111Z,16.60
2019-01-30T00:34:17.628Z,17.47
2019-01-30T00:37:07.066Z,18.40
2019-01-30T00:39:56.053Z,16.77
2019-01-30T00:42:45.137Z,16.93
2019-01-30T00:45:34.590Z,18.55
2019-01-30T00:48:23.776Z,17.77
2019-01-30T00:51:12.997Z,20.97
2019-01-30T00:54:02.625Z,16.90
2019-01-30T00:56:51.915Z,17.87
2019-01-30T00:59:41.268Z,16.70
2019-01-30T01:02:29.881Z,16.75
2019-01-30T01:05:18.851Z,17.95
2019-01-30T01:08:07.990Z,16.73
2019-01-30T01:10:57.531Z,17.23
2019-01-30T01:13:46.592Z,17.32
2019-01-30T01:16:35.789Z,17.48
2019-01-30T01:19:25.537Z,16.42
2019-01-30T01:22:14.697Z,16.75
2019-01-30T01:25:05.404Z,17.35
2019-01-30T01:27:54.773Z,16.82
2019-01-30T01:30:44.250Z,16.62
2019-01-30T01:33:33.121Z,16.97
2019-01-30T01:36:22.482Z,17.10
2019-01-30T01:39:11.449Z,16.20
2019-01-30T01:42:00.272Z,18.80
2019-01-30T01:44:49.021Z,17.12
2019-01-30T01:47:38.107Z,15.00
2019-01-30T01:50:28.834Z,15.85
2019-01-30T01:53:17.734Z,14.90
2019-01-30T01:56:07.375Z,15.05
2019-01-30T01:58:56.661Z,16.75
2019-01-30T02:01:46.007Z,15.28
2019-01-30T02:04:35.233Z,15.43
2019-01-30T02:07:24.555Z,14.35
2019-01-30T02:10:19.488Z,14.75
2019-01-30T02:13:08.418Z,13.20
2019-01-30T02:15:57.589Z,15.80
2019-01-30T02:18:46.735Z,14.13
2019-01-30T02:21:36.424Z,13.22
2019-01-30T02:24:25.809Z,12.78
2019-01-30T02:27:15.179Z,14.17
2019-01-30T02:30:07.126Z,13.40
2019-01-30T02:32:55.871Z,12.40
2019-01-30T02:35:44.548Z,13.20
2019-01-30T02:38:33.831Z,15.00
2019-01-30T02:41:23.104Z,12.03
2019-01-30T02:44:12.228Z,14.20
2019-01-30T02:47:01.408Z,13.20
2019-01-30T02:49:50.712Z,13.32
2019-01-30T02:52:39.609Z,12.70
2019-01-30T02:55:28.583Z,12.25
2019-01-30T02:58:17.189Z,12.37
2019-01-30T03:01:06.370Z,11.10
2019-01-30T03:03:55.792Z,12.00
2019-01-30T03:06:44.929Z,12.28
2019-01-30T03:09:33.719Z,11.17
2019-01-30T03:12:23.035Z,12.00
2019-01-30T03:15:17.791Z,12.40
2019-01-30T03:18:07.004Z,11.55
2019-01-30T03:20:56.200Z,12.58
2019-01-30T03:23:45.347Z,13.45
2019-01-30T03:26:34.540Z,12.58
2019-01-30T03:29:23.825Z,11.35
2019-01-30T03:32:13.079Z,12.40
2019-01-30T03:35:01.727Z,10.85
2019-01-30T03:37:50.798Z,12.23
2019-01-30T03:40:40.386Z,12.60
2019-01-30T03:43:29.424Z,11.80
2019-01-30T03:46:18.486Z,10.38
2019-01-30T03:49:07.850Z,10.00
2019-01-30T03:51:57.245Z,10.80
2019-01-30T03:54:46.322Z,10.80
2019-01-30T03:57:35.676Z,10.78
2019-01-30T04:00:27.393Z,11.05
2019-01-30T04:03:16.073Z,10.65
2019-01-30T04:06:05.225Z,10.65
2019-01-30T04:08:54.796Z,10.53
2019-01-30T04:11:43.809Z,10.03
2019-01-30T04:14:33.042Z,10.32
2019-01-30T04:17:21.547Z,11.88
2019-01-30T04:20:15.319Z,11.88
2019-01-30T04:23:04.634Z,10.80
2019-01-30T04:25:53.529Z,9.95
2019-01-30T04:28:42.875Z,10.20
2019-01-30T04:31:38.333Z,10.18
2019-01-30T04:34:22.943Z,10.18
2019-01-30T04:37:12.097Z,9.98
2019-01-30T04:40:01.695Z,11.00
2019-01-30T04:42:50.868Z,11.20
2019-01-30T04:45:39.823Z,11.88
2019-01-30T04:48:29.221Z,9.38
2019-01-30T04:51:18.356Z,10.53
2019-01-30T04:54:07.453Z,10.95
2019-01-30T04:56:56.703Z,10.72
2019-01-30T04:59:45.137Z,10.95
2019-01-30T05:02:34.611Z,11.25
2019-01-30T05:05:24.094Z,10.80
2019-01-30T05:08:13.777Z,11.60
2019-01-30T05:11:02.928Z,10.85
2019-01-30T05:13:52.033Z,11.25
2019-01-30T05:16:41.165Z,11.53
2019-01-30T05:19:30.726Z,12.18
2019-01-30T05:22:20.215Z,11.45
2019-01-30T05:25:11.080Z,11.73
2019-01-30T05:28:00.080Z,11.33
2019-01-30T05:30:49.245Z,11.90
2019-01-30T05:33:38.576Z,11.10
2019-01-30T05:36:27.381Z,11.60
2019-01-30T05:39:16.433Z,12.05
2019-01-30T05:42:05.929Z,14.00
2019-01-30T05:44:54.463Z,12.30
2019-01-30T05:47:43.436Z,11.90
2019-01-30T05:50:32.491Z,12.13
2019-01-30T05:53:22.379Z,11.75
2019-01-30T05:56:11.241Z,12.30
2019-01-30T05:59:00.615Z,11.18
2019-01-30T06:01:49.629Z,11.68
2019-01-30T06:04:39.251Z,12.20
2019-01-30T06:07:28.521Z,11.78
2019-01-30T06:10:18.119Z,12.13
2019-01-30T06:13:06.957Z,11.73
2019-01-30T06:15:55.915Z,11.70
2019-01-30T06:18:44.981Z,12.15
2019-01-30T06:21:34.098Z,11.80
2019-01-30T06:24:22.701Z,12.28
2019-01-30T06:27:12.034Z,12.30
2019-01-30T06:30:01.554Z,10.88
2019-01-30T06:32:51.095Z,12.18
2019-01-30T06:35:40.608Z,11.73
2019-01-30T06:38:30.290Z,11.83
2019-01-30T06:41:19.853Z,11.25
2019-01-30T06:44:09.844Z,10.53
2019-01-30T06:46:58.977Z,10.35
2019-01-30T06:49:48.087Z,12.28
2019-01-30T06:52:36.864Z,10.93
2019-01-30T06:55:26.408Z,11.10
2019-01-30T06:58:15.752Z,12.00
2019-01-30T07:01:05.567Z,11.28
2019-01-30T07:03:54.732Z,12.20
2019-01-30T07:06:43.853Z,11.28
2019-01-30T07:09:33.371Z,10.40
2019-01-30T07:12:22.138Z,11.03
2019-01-30T07:15:11.599Z,11.18
2019-01-30T07:18:00.559Z,10.55
2019-01-30T07:20:49.933Z,10.63
2019-01-30T07:23:38.588Z,10.57
2019-01-30T07:26:27.872Z,11.17
2019-01-30T07:29:16.316Z,11.30
2019-01-30T07:32:05.534Z,10.63
2019-01-30T07:34:54.637Z,10.00
2019-01-30T07:37:43.912Z,11.10
2019-01-30T07:40:33.240Z,10.03
2019-01-30T07:43:23.119Z,9.93
2019-01-30T07:46:12.539Z,10.03
2019-01-30T07:49:01.390Z,10.20
2019-01-30T07:51:50.872Z,10.15
2019-01-30T07:54:40.093Z,9.78
2019-01-30T07:57:28.898Z,10.00
2019-01-30T08:00:25.125Z,10.00
2019-01-30T08:03:14.814Z,9.00
2019-01-30T08:06:03.654Z,10.18
2019-01-30T08:08:53.563Z,9.10
2019-01-30T08:11:42.923Z,9.80
2019-01-30T08:14:32.221Z,9.08
2019-01-30T08:17:21.873Z,8.93
2019-01-30T08:20:17.480Z,10.25
2019-01-30T08:23:07.470Z,8.80
2019-01-30T08:25:55.948Z,10.23
2019-01-30T08:28:45.649Z,9.90
2019-01-30T08:31:35.019Z,10.20
2019-01-30T08:34:24.665Z,10.23
2019-01-30T08:37:13.749Z,9.40
2019-01-30T08:40:03.103Z,8.73
2019-01-30T08:42:52.487Z,9.90
2019-01-30T08:45:42.256Z,9.05
2019-01-30T08:48:31.316Z,9.40
2019-01-30T08:51:20.027Z,9.75
2019-01-30T08:54:08.995Z,9.80
2019-01-30T08:56:57.809Z,10.32
2019-01-30T08:59:47.160Z,9.45
2019-01-30T09:02:36.213Z,9.90
2019-01-30T09:05:25.185Z,10.27
2019-01-30T09:08:14.037Z,9.85
2019-01-30T09:11:03.837Z,9.33
2019-01-30T09:13:52.970Z,8.80
2019-01-30T09:16:42.167Z,9.13
2019-01-30T09:19:31.475Z,9.65
2019-01-30T09:22:20.708Z,9.23
2019-01-30T09:25:14.131Z,10.32
2019-01-30T09:28:03.451Z,9.28
2019-01-30T09:30:52.529Z,9.05
2019-01-30T09:33:41.651Z,8.80
2019-01-30T09:36:30.632Z,9.48
2019-01-30T09:39:20.054Z,8.65
2019-01-30T09:42:09.085Z,8.93
2019-01-30T09:44:57.959Z,8.77
2019-01-30T09:47:47.136Z,7.28
2019-01-30T09:50:36.229Z,9.03
2019-01-30T09:53:25.532Z,8.70
2019-01-30T09:56:15.601Z,9.13
2019-01-30T09:59:05.272Z,10.98
2019-01-30T10:01:54.264Z,7.27
2019-01-30T10:04:43.351Z,9.80
2019-01-30T10:07:32.401Z,8.10
2019-01-30T10:10:28.617Z,7.83
2019-01-30T10:13:18.300Z,9.45
2019-01-30T18:56:47.627Z,10.58
2019-01-30T18:59:36.306Z,10.90
2019-01-30T19:02:25.451Z,11.15
2019-01-30T19:05:16.280Z,12.05
2019-01-30T19:08:05.226Z,11.45
2019-01-30T19:10:54.410Z,12.30
2019-01-30T19:13:43.979Z,11.60
2019-01-30T19:16:33.048Z,11.03
2019-01-30T19:19:22.311Z,12.10
2019-01-30T19:22:11.127Z,12.30
2019-01-30T19:24:59.946Z,13.75
2019-01-30T19:27:49.087Z,12.60
2019-01-30T19:30:38.012Z,15.08
2019-01-30T19:33:27.376Z,14.78
2019-01-30T19:36:16.885Z,16.00
2019-01-30T19:39:08.880Z,16.23
2019-01-30T19:41:57.987Z,14.20
2019-01-30T19:44:47.382Z,13.15
2019-01-30T19:47:36.613Z,14.28
2019-01-30T19:50:33.185Z,13.88
2019-01-30T19:53:22.634Z,15.10
2019-01-30T19:56:12.142Z,15.53
2019-01-30T19:59:01.624Z,14.68
2019-01-30T20:01:50.885Z,15.55
2019-01-30T20:04:40.277Z,14.05
2019-01-30T20:07:29.032Z,14.55
2019-01-30T20:10:36.387Z,15.10
2019-01-30T20:13:25.889Z,14.65
2019-01-30T20:16:15.191Z,15.88
2019-01-30T20:19:04.095Z,15.93
2019-01-30T20:21:53.261Z,15.63
2019-01-30T20:24:42.258Z,17.30
2019-01-30T20:27:31.406Z,15.53
2019-01-30T20:30:23.528Z,16.70
2019-01-30T20:33:12.194Z,15.65
2019-01-30T20:36:01.731Z,16.23
2019-01-30T20:38:51.336Z,16.20
2019-01-30T20:41:40.537Z,16.48
2019-01-30T20:44:29.628Z,17.15
2019-01-30T20:47:19.097Z,15.60
2019-01-30T20:50:15.956Z,16.20
2019-01-30T20:53:05.656Z,16.05
2019-01-30T20:55:55.057Z,16.62
2019-01-30T20:58:44.115Z,15.85
2019-01-30T21:01:32.981Z,15.68
2019-01-30T21:04:22.342Z,16.40
2019-01-30T21:07:11.828Z,16.10
2019-01-30T21:10:01.104Z,15.95
2019-01-30T21:12:49.914Z,15.63
2019-01-30T21:15:39.333Z,14.80
2019-01-30T21:18:28.496Z,16.90
2019-01-30T21:21:17.356Z,15.48
2019-01-30T21:24:06.411Z,18.97
2019-01-30T21:26:55.790Z,17.10
2019-01-30T21:29:44.859Z,15.28
2019-01-30T21:32:34.326Z,16.97
2019-01-30T21:35:23.695Z,19.70
2019-01-30T21:38:12.567Z,16.87
2019-01-30T21:43:50.514Z,17.70
2019-01-30T21:46:39.252Z,17.20
2019-01-30T21:49:28.698Z,15.18
2019-01-30T21:52:17.376Z,15.78
2019-01-30T21:55:16.693Z,16.30
2019-01-30T21:58:05.838Z,15.88
2019-01-30T22:00:55.291Z,16.93
2019-01-30T22:03:44.546Z,17.40
2019-01-30T22:06:33.654Z,16.05
2019-01-30T22:09:23.027Z,16.32
2019-01-30T22:12:12.082Z,15.15
2019-01-30T22:15:01.564Z,15.53
2019-01-30T22:17:50.324Z,14.95
2019-01-30T22:20:39.655Z,14.40
2019-01-30T22:23:28.652Z,13.75
2019-01-30T22:26:18.139Z,15.00
2019-01-30T22:29:07.473Z,16.00
2019-01-30T22:31:56.354Z,13.20
2019-01-30T22:37:33.939Z,15.72
